CheckWX is a tool to help pilots better visualize weather data.  It is not intended as a substitute for an official pre-flight weather briefing.

14:15:01 UTC

KOLU METAR
Columbus Municipal Airport
Columbus, Nebraska, USA
Current

19 mins ago

KOLU 221356Z AUTO 33017G26KT 10SM BKN012 BKN019 10/08 A2994 RMK AO2 PK WND 33027/1323 RAB12E22 SLP137 P0000 T01000078
Observed
Apr-22 @ 13:56 UTC
Wind
  • 330° at 17 KTS
  • Gusting to 26 KTS
Visibility
10 SM
Flight Rules
MVFR
Cloud Levels
  • Broken at 1,200' AGL
  • Broken at 1,900' AGL
Temperature
10°C / 50°F
Dewpoint
C / 46°F
Humidity
88%
Altimeter
29.94" Hg
Pressure
1013.92 hPa
Current Rain
0.01"
Previous

34 mins ago

KOLU 221341Z AUTO 33021G26KT 10SM OVC010 09/08 A2993 RMK AO2 PK WND 33027/1323 RAB12E22 P0000
Observed
Apr-22 @ 13:41 UTC
Wind
  • 330° at 21 KTS
  • Gusting to 26 KTS
Visibility
10 SM
Flight Rules
MVFR
Cloud Levels
  • Overcast at 1,000' AGL
Temperature
C / 48°F
Dewpoint
C / 46°F
Humidity
94%
Altimeter
29.93" Hg
Pressure
1013.52 hPa
Current Rain
0.01"
Previous

1 hour ago

KOLU 221256Z AUTO 32021G27KT 10SM OVC008 09/08 A2992 RMK AO2 PK WND 32027/1254 SLP129 T00940078
Observed
Apr-22 @ 12:56 UTC
Wind
  • 320° at 21 KTS
  • Gusting to 27 KTS
Visibility
10 SM
Flight Rules
IFR
Cloud Levels
  • Overcast at 800' AGL
Temperature
C / 48°F
Dewpoint
C / 46°F
Humidity
94%
Altimeter
29.92" Hg
Pressure
1013.22 hPa